createdAt,value
2017-05-22T00:01:17.579Z,11.80
2017-05-22T00:03:45.894Z,11.80
2017-05-22T00:06:14.203Z,11.80
2017-05-22T00:08:42.634Z,11.70
2017-05-22T00:11:10.950Z,11.70
2017-05-22T00:13:39.569Z,11.60
2017-05-22T00:16:07.877Z,11.60
2017-05-22T00:18:36.196Z,11.60
2017-05-22T00:21:05.637Z,11.50
2017-05-22T00:23:33.948Z,11.50
2017-05-22T00:26:02.257Z,11.50
2017-05-22T00:28:30.605Z,11.50
2017-05-22T00:30:59.486Z,11.40
2017-05-22T00:33:27.801Z,11.40
2017-05-22T00:35:56.109Z,11.40
2017-05-22T00:38:24.873Z,11.30
2017-05-22T00:40:53.190Z,11.20
2017-05-22T00:43:21.497Z,11.20
2017-05-22T00:45:49.862Z,11.20
2017-05-22T00:48:18.177Z,11.20
2017-05-22T00:50:46.541Z,11.10
2017-05-22T00:53:14.410Z,11.10
2017-05-22T00:55:42.723Z,11.00
2017-05-22T00:58:11.041Z,10.90
2017-05-22T01:00:39.937Z,10.90
2017-05-22T01:03:08.257Z,10.90
2017-05-22T01:05:36.569Z,10.90
2017-05-22T01:08:04.925Z,10.80
2017-05-22T01:10:33.246Z,10.80
2017-05-22T01:13:02.020Z,10.80
2017-05-22T01:15:30.339Z,10.80
2017-05-22T01:17:58.646Z,10.80
2017-05-22T01:20:27.067Z,10.70
2017-05-22T01:22:55.380Z,10.70
2017-05-22T01:25:25.522Z,10.70
2017-05-22T01:27:53.837Z,10.70
2017-05-22T01:30:22.155Z,10.70
2017-05-22T01:32:51.117Z,10.70
2017-05-22T01:35:19.441Z,10.60
2017-05-22T01:37:47.751Z,10.60
2017-05-22T01:40:16.195Z,10.60
2017-05-22T01:42:44.549Z,10.60
2017-05-22T01:45:12.862Z,10.60
2017-05-22T01:47:41.498Z,10.60
2017-05-22T01:50:09.810Z,10.50
2017-05-22T01:52:38.137Z,10.50
2017-05-22T01:55:06.843Z,10.50
2017-05-22T01:57:35.158Z,10.40
2017-05-22T02:00:03.471Z,10.40
2017-05-22T02:02:32.343Z,10.40
2017-05-22T02:05:00.665Z,10.40
2017-05-22T02:07:29.076Z,10.40
2017-05-22T02:09:59.039Z,10.30
2017-05-22T02:12:27.349Z,10.30
2017-05-22T02:14:55.663Z,10.30
2017-05-22T02:17:24.505Z,10.30
2017-05-22T02:19:52.816Z,10.30
2017-05-22T02:22:21.129Z,10.30
2017-05-22T02:24:49.482Z,10.20
2017-05-22T02:27:18.505Z,10.20
2017-05-22T02:29:46.865Z,10.20
2017-05-22T02:32:15.243Z,10.10
2017-05-22T02:34:44.196Z,10.10
2017-05-22T02:37:12.553Z,10.10
2017-05-22T02:39:41.106Z,10.00
2017-05-22T02:42:09.493Z,9.90
2017-05-22T02:44:37.805Z,9.80
2017-05-22T02:47:06.158Z,9.80
2017-05-22T02:49:34.514Z,9.70
2017-05-22T02:52:03.185Z,9.70
2017-05-22T02:54:31.537Z,9.60
2017-05-22T02:56:59.853Z,9.70
2017-05-22T02:59:28.596Z,9.70
2017-05-22T03:01:56.910Z,9.70
2017-05-22T03:04:25.219Z,9.70
2017-05-22T03:06:53.613Z,9.80
2017-05-22T03:09:23.854Z,9.70
2017-05-22T03:11:52.165Z,9.80
2017-05-22T03:14:20.517Z,9.70
2017-05-22T03:16:48.941Z,9.80
2017-05-22T03:19:17.308Z,9.70
2017-05-22T03:21:45.674Z,9.70
2017-05-22T03:24:16.944Z,9.60
2017-05-22T03:26:45.309Z,9.60
2017-05-22T03:29:13.675Z,9.60
2017-05-22T03:31:42.365Z,9.60
2017-05-22T03:34:10.695Z,9.60
2017-05-22T03:36:39.361Z,9.60
2017-05-22T03:39:07.721Z,9.60
2017-05-22T03:41:36.074Z,9.60
2017-05-22T03:44:04.478Z,9.60
2017-05-22T03:46:32.841Z,9.60
2017-05-22T03:49:02.887Z,9.60
2017-05-22T03:51:31.200Z,9.60
2017-05-22T03:53:59.510Z,9.60
2017-05-22T03:56:27.902Z,9.70
2017-05-22T03:58:56.270Z,9.70
2017-05-22T04:01:24.630Z,9.70
2017-05-22T04:03:52.218Z,9.70
2017-05-22T04:06:21.213Z,9.80
2017-05-22T04:08:49.520Z,9.80
2017-05-22T04:11:17.876Z,9.80
2017-05-22T04:13:46.667Z,9.80
2017-05-22T04:16:15.024Z,9.80
2017-05-22T04:18:43.344Z,9.80
2017-05-22T04:21:11.833Z,9.80
2017-05-22T04:23:40.205Z,9.90
2017-05-22T04:26:08.981Z,9.90
2017-05-22T04:28:37.301Z,10.00
2017-05-22T04:31:05.689Z,10.00
2017-05-22T04:33:33.913Z,10.00
2017-05-22T04:36:02.280Z,10.30
2017-05-22T04:38:30.596Z,10.40
2017-05-22T04:40:59.264Z,10.60
2017-05-22T04:43:27.578Z,10.70
2017-05-22T04:45:55.933Z,10.80
2017-05-22T04:48:24.248Z,10.90
2017-05-22T04:50:54.293Z,11.00
2017-05-22T04:53:22.659Z,11.10
2017-05-22T04:55:50.990Z,11.20
2017-05-22T04:58:19.537Z,11.30
2017-05-22T05:00:47.905Z,11.50
2017-05-22T05:03:16.229Z,11.50
2017-05-22T05:05:44.913Z,11.60
2017-05-22T05:08:13.282Z,11.80
2017-05-22T05:10:41.649Z,11.90
2017-05-22T05:13:11.425Z,11.90
2017-05-22T05:15:39.785Z,12.00
2017-05-22T05:18:08.161Z,12.10
2017-05-22T05:20:38.111Z,12.10
2017-05-22T05:23:06.425Z,12.20
2017-05-22T05:25:34.735Z,12.30
2017-05-22T05:28:05.186Z,12.40
2017-05-22T05:30:33.550Z,12.50
2017-05-22T05:33:01.913Z,12.60
2017-05-22T05:35:32.131Z,12.60
2017-05-22T05:38:00.451Z,12.70
2017-05-22T05:40:28.900Z,12.80
2017-05-22T05:42:57.267Z,12.80
2017-05-22T05:45:25.635Z,12.90
2017-05-22T05:47:58.318Z,13.00
2017-05-22T05:50:26.688Z,13.00
2017-05-22T05:52:55.058Z,13.10
2017-05-22T05:55:23.473Z,13.30
2017-05-22T05:57:51.813Z,13.30
2017-05-22T06:00:20.522Z,13.50
2017-05-22T06:02:48.852Z,13.50
2017-05-22T06:05:17.213Z,13.70
2017-05-22T06:07:45.753Z,13.80
2017-05-22T06:10:14.137Z,13.90
2017-05-22T06:12:42.563Z,14.00
2017-05-22T06:15:11.040Z,14.10
2017-05-22T06:17:39.407Z,14.20
2017-05-22T06:20:07.729Z,14.20
2017-05-22T06:22:36.201Z,14.40
2017-05-22T06:25:03.797Z,14.30
2017-05-22T06:27:32.165Z,14.60
2017-05-22T06:30:00.525Z,14.60
2017-05-22T06:32:28.890Z,14.80
2017-05-22T06:34:57.361Z,14.90
2017-05-22T06:37:26.412Z,15.10
2017-05-22T06:39:55.321Z,15.20
2017-05-22T06:42:23.680Z,15.20
2017-05-22T06:44:52.526Z,15.40
2017-05-22T06:47:20.914Z,15.50
2017-05-22T06:49:49.234Z,15.60
2017-05-22T06:52:17.590Z,15.70
2017-05-22T06:54:45.921Z,15.80
2017-05-22T06:57:14.641Z,15.90
2017-05-22T06:59:42.970Z,16.00
2017-05-22T07:02:11.289Z,16.00
2017-05-22T07:04:39.845Z,16.10
2017-05-22T07:07:08.166Z,16.20
2017-05-22T07:09:36.564Z,16.30
2017-05-22T07:12:04.886Z,16.40
2017-05-22T07:14:33.294Z,16.50
2017-05-22T07:17:01.701Z,16.70
2017-05-22T07:19:30.022Z,16.80
2017-05-22T07:21:58.771Z,16.90
2017-05-22T07:24:27.096Z,17.00
2017-05-22T07:26:55.409Z,17.10
2017-05-22T07:29:23.810Z,17.20
2017-05-22T07:31:52.144Z,17.30
2017-05-22T07:34:20.830Z,17.50
2017-05-22T07:36:49.146Z,17.70
2017-05-22T07:39:17.502Z,17.80
2017-05-22T07:41:46.704Z,18.00
2017-05-22T07:44:15.029Z,18.10
2017-05-22T07:46:43.346Z,18.20
2017-05-22T07:49:11.705Z,18.30
2017-05-22T07:51:41.669Z,18.40
2017-05-22T07:54:10.030Z,18.50
2017-05-22T07:56:38.403Z,18.60
2017-05-22T07:59:07.114Z,18.70
2017-05-22T08:01:35.477Z,18.90
2017-05-22T08:04:03.850Z,19.00
2017-05-22T08:06:31.638Z,19.00
2017-05-22T08:08:59.961Z,19.30
2017-05-22T08:11:28.603Z,19.50
2017-05-22T08:13:56.975Z,19.60
2017-05-22T08:16:25.345Z,19.70
2017-05-22T08:18:54.058Z,19.80
2017-05-22T08:21:22.460Z,19.80
2017-05-22T08:23:50.833Z,20.00
2017-05-22T08:26:19.430Z,20.10
2017-05-22T08:28:47.810Z,20.20
2017-05-22T08:31:16.345Z,20.40
2017-05-22T08:33:45.162Z,20.40
2017-05-22T08:36:13.529Z,20.50
2017-05-22T08:38:41.870Z,20.70
2017-05-22T08:41:10.460Z,20.80
2017-05-22T08:43:38.802Z,20.80
2017-05-22T08:46:07.121Z,20.90
2017-05-22T08:48:35.627Z,21.00
2017-05-22T08:51:03.949Z,21.10
2017-05-22T08:53:32.777Z,21.20
2017-05-22T08:56:01.119Z,21.30
2017-05-22T08:58:29.434Z,21.40
2017-05-22T09:00:58.235Z,21.40
2017-05-22T09:03:26.592Z,21.50
2017-05-22T09:05:54.920Z,21.50
2017-05-22T09:08:23.286Z,21.60
2017-05-22T09:10:51.604Z,21.70
2017-05-22T09:13:20.001Z,21.80
2017-05-22T09:15:48.388Z,21.90
2017-05-22T09:18:17.087Z,22.00
2017-05-22T09:20:45.427Z,22.10
2017-05-22T09:23:18.674Z,22.20
2017-05-22T09:25:47.461Z,22.30
2017-05-22T09:28:15.779Z,22.30
2017-05-22T09:30:44.150Z,22.40
2017-05-22T09:33:12.781Z,22.50
2017-05-22T09:35:41.096Z,22.60
2017-05-22T09:38:09.606Z,22.70
2017-05-22T09:40:37.177Z,22.70
2017-05-22T09:43:05.651Z,22.80
2017-05-22T09:45:34.071Z,22.90
2017-05-22T09:48:02.433Z,23.10
2017-05-22T09:50:31.004Z,23.10
2017-05-22T09:52:59.379Z,23.20
2017-05-22T09:55:28.130Z,23.20
2017-05-22T09:57:56.462Z,23.40
2017-05-22T10:00:24.889Z,23.40
2017-05-22T10:02:53.335Z,23.40
2017-05-22T10:05:21.649Z,23.30
2017-05-22T10:07:50.065Z,23.20
2017-05-22T10:10:18.482Z,23.20
2017-05-22T10:12:46.852Z,23.10
2017-05-22T10:15:15.266Z,23.20
2017-05-22T10:17:43.642Z,23.30
2017-05-22T10:20:12.593Z,23.60
2017-05-22T10:22:40.903Z,23.70
2017-05-22T10:25:09.239Z,23.60
2017-05-22T10:27:37.605Z,23.50
2017-05-22T10:30:05.917Z,23.60
2017-05-22T10:32:34.642Z,23.70
2017-05-22T10:35:03.009Z,23.60
2017-05-22T10:37:31.369Z,23.50
2017-05-22T10:40:00.408Z,23.40
2017-05-22T10:42:29.246Z,23.30
2017-05-22T10:44:57.571Z,23.30
2017-05-22T10:47:25.938Z,23.40
2017-05-22T10:49:54.734Z,23.40
2017-05-22T10:52:23.113Z,23.30
2017-05-22T10:54:51.467Z,23.40
2017-05-22T10:57:19.570Z,23.40
2017-05-22T10:59:47.898Z,23.70
2017-05-22T11:02:16.736Z,23.70
2017-05-22T11:04:45.077Z,23.60
2017-05-22T11:07:13.438Z,23.60
2017-05-22T11:09:42.157Z,23.70
2017-05-22T11:12:10.483Z,23.60
2017-05-22T11:14:38.841Z,23.60
2017-05-22T11:17:11.293Z,23.60
2017-05-22T11:19:39.615Z,23.60
2017-05-22T11:22:07.929Z,23.50
2017-05-22T11:24:36.369Z,23.60
2017-05-22T11:27:04.750Z,23.80
2017-05-22T11:29:33.073Z,23.80
2017-05-22T11:32:01.476Z,23.80
2017-05-22T11:34:29.850Z,23.90
2017-05-22T11:36:58.697Z,24.10
2017-05-22T11:39:27.057Z,24.10
2017-05-22T11:41:55.419Z,24.20
2017-05-22T11:44:24.101Z,24.30
2017-05-22T11:46:52.453Z,24.30
2017-05-22T11:49:20.830Z,24.20
2017-05-22T11:51:49.648Z,24.10
2017-05-22T11:54:17.973Z,24.10
2017-05-22T11:56:46.337Z,24.00
2017-05-22T11:59:15.396Z,24.00
2017-05-22T12:01:43.720Z,24.00
2017-05-22T12:04:12.083Z,23.90
2017-05-22T12:06:40.493Z,23.80
2017-05-22T12:09:08.858Z,23.80
2017-05-22T12:11:37.218Z,23.80
2017-05-22T12:14:05.541Z,23.70
2017-05-22T12:16:34.662Z,23.80
2017-05-22T12:19:02.986Z,23.80
2017-05-22T12:21:31.347Z,23.80
2017-05-22T12:23:59.817Z,23.80
2017-05-22T12:26:28.181Z,23.80
2017-05-22T12:28:56.553Z,24.00
2017-05-22T12:31:25.001Z,24.20
2017-05-22T12:33:53.918Z,24.20
2017-05-22T12:36:22.277Z,24.20
2017-05-22T12:38:50.641Z,24.10
2017-05-22T12:41:19.062Z,24.20
2017-05-22T12:43:47.425Z,24.20
2017-05-22T12:46:15.789Z,24.30
2017-05-22T12:48:44.153Z,24.50
2017-05-22T12:51:12.988Z,24.80
2017-05-22T12:53:41.311Z,25.00
2017-05-22T12:56:09.634Z,25.20
2017-05-22T12:58:38.035Z,25.20
2017-05-22T13:01:07.095Z,25.20
2017-05-22T13:03:35.420Z,25.30
2017-05-22T13:06:03.783Z,25.20
2017-05-22T13:08:32.187Z,25.30
2017-05-22T13:11:00.515Z,25.40
2017-05-22T13:13:29.067Z,25.60
2017-05-22T13:15:56.619Z,25.50
2017-05-22T13:18:24.935Z,26.00
2017-05-22T13:20:53.355Z,26.20
2017-05-22T13:23:21.712Z,26.20
2017-05-22T13:25:50.031Z,26.20
2017-05-22T13:28:18.553Z,26.20
2017-05-22T13:30:46.922Z,26.20
2017-05-22T13:33:16.222Z,26.30
2017-05-22T13:35:44.583Z,26.20
2017-05-22T13:38:12.909Z,26.10
2017-05-22T13:40:41.421Z,26.00
2017-05-22T13:43:09.790Z,26.10
2017-05-22T13:45:38.142Z,26.20
2017-05-22T13:48:06.501Z,26.20
2017-05-22T13:50:35.194Z,26.20
2017-05-22T13:53:03.505Z,26.30
2017-05-22T13:55:31.822Z,26.40
2017-05-22T13:58:00.433Z,26.50
2017-05-22T14:00:29.226Z,26.60
2017-05-22T14:02:57.538Z,26.80
2017-05-22T14:05:25.855Z,27.00
2017-05-22T14:07:54.669Z,27.20
2017-05-22T14:10:22.982Z,27.30
2017-05-22T14:12:51.341Z,27.40
2017-05-22T14:15:24.975Z,27.60
2017-05-22T14:17:53.291Z,27.60
2017-05-22T14:20:21.601Z,27.70
2017-05-22T14:22:50.051Z,27.80
2017-05-22T14:25:18.393Z,27.80
2017-05-22T14:27:46.702Z,27.80
2017-05-22T14:30:15.219Z,27.80
2017-05-22T14:32:43.535Z,27.70
2017-05-22T14:35:12.298Z,27.70
2017-05-22T14:37:40.609Z,27.60
2017-05-22T14:40:09.317Z,27.60
2017-05-22T14:42:37.687Z,27.70
2017-05-22T14:45:05.997Z,27.60
2017-05-22T14:47:34.717Z,27.60
2017-05-22T14:50:03.037Z,27.40
2017-05-22T14:52:31.401Z,27.40
2017-05-22T14:55:00.117Z,27.50
2017-05-22T14:57:28.472Z,27.50
2017-05-22T14:59:56.787Z,27.60
2017-05-22T15:02:25.337Z,27.60
2017-05-22T15:04:53.740Z,27.80
2017-05-22T15:07:22.165Z,28.00
2017-05-22T15:09:50.529Z,28.10
2017-05-22T15:12:18.912Z,28.20
2017-05-22T15:14:47.420Z,28.30
2017-05-22T15:17:15.726Z,28.50
2017-05-22T15:19:44.146Z,28.70
2017-05-22T15:22:12.525Z,28.80
2017-05-22T15:24:40.896Z,28.90
2017-05-22T15:27:08.985Z,28.90
2017-05-22T15:29:37.318Z,29.10
2017-05-22T15:32:05.874Z,29.20
2017-05-22T15:34:34.813Z,29.30
2017-05-22T15:37:03.168Z,29.50
2017-05-22T15:39:31.538Z,29.60
2017-05-22T15:41:59.941Z,29.80
2017-05-22T15:44:28.311Z,29.90
2017-05-22T15:46:56.621Z,30.00
2017-05-22T15:49:30.517Z,30.00
2017-05-22T15:51:58.836Z,30.00
2017-05-22T15:54:27.197Z,30.00
2017-05-22T15:56:55.957Z,30.00
2017-05-22T15:59:24.325Z,30.00
2017-05-22T16:01:52.695Z,30.00
2017-05-22T16:04:21.151Z,30.20
2017-05-22T16:06:49.665Z,30.30
2017-05-22T16:09:18.030Z,30.50
2017-05-22T16:11:46.397Z,30.60
2017-05-22T16:14:15.081Z,30.80
2017-05-22T16:16:43.408Z,30.90
2017-05-22T16:19:11.769Z,31.00
2017-05-22T16:21:40.225Z,31.10
2017-05-22T16:24:08.606Z,31.20
2017-05-22T16:26:36.942Z,31.20
2017-05-22T16:29:05.361Z,31.10
2017-05-22T16:31:33.737Z,30.80
2017-05-22T16:34:03.187Z,30.60
2017-05-22T16:36:31.502Z,30.60
2017-05-22T16:38:59.924Z,30.80
2017-05-22T16:41:29.245Z,30.90
2017-05-22T16:43:57.610Z,31.00
2017-05-22T16:46:25.936Z,31.00
2017-05-22T16:48:54.383Z,30.90
2017-05-22T16:51:22.738Z,30.80
2017-05-22T16:53:51.046Z,30.40
2017-05-22T16:56:19.882Z,30.00
2017-05-22T16:58:48.251Z,29.60
2017-05-22T17:01:16.605Z,29.30
2017-05-22T17:03:45.138Z,28.90
2017-05-22T17:06:13.451Z,28.50
2017-05-22T17:08:41.767Z,28.30
2017-05-22T17:11:10.398Z,28.00
2017-05-22T17:13:38.713Z,27.80
2017-05-22T17:16:07.076Z,27.60
2017-05-22T17:18:35.750Z,27.30
2017-05-22T17:21:04.063Z,27.00
2017-05-22T17:23:32.417Z,26.80
2017-05-22T17:26:01.079Z,26.70
2017-05-22T17:28:29.833Z,26.60
2017-05-22T17:30:58.145Z,26.50
2017-05-22T17:33:26.460Z,26.40
2017-05-22T17:35:55.229Z,26.30
2017-05-22T17:38:23.550Z,26.20
2017-05-22T17:40:52.209Z,26.10
2017-05-22T17:43:25.701Z,26.00
2017-05-22T17:45:54.087Z,25.90
2017-05-22T17:48:26.620Z,25.80
2017-05-22T17:50:55.802Z,25.70
2017-05-22T17:53:24.123Z,25.60
2017-05-22T17:55:52.921Z,25.40
2017-05-22T17:58:21.277Z,25.40
2017-05-22T18:00:49.604Z,25.20
2017-05-22T18:03:18.132Z,25.10
2017-05-22T18:05:46.513Z,25.00
2017-05-22T18:08:14.936Z,24.90
2017-05-22T18:10:43.310Z,24.80
2017-05-22T18:13:11.673Z,24.70
2017-05-22T18:15:40.437Z,24.60
2017-05-22T18:18:08.819Z,24.40
2017-05-22T18:20:37.191Z,24.30
2017-05-22T18:23:05.679Z,24.30
2017-05-22T18:25:34.057Z,24.10
2017-05-22T18:28:02.805Z,24.00
2017-05-22T18:30:31.134Z,23.90
2017-05-22T18:32:59.458Z,23.80
2017-05-22T18:35:27.916Z,23.60
2017-05-22T18:37:56.005Z,23.60
2017-05-22T18:40:24.333Z,23.40
2017-05-22T18:42:53.105Z,23.30
2017-05-22T18:45:21.433Z,23.20
2017-05-22T18:47:49.749Z,23.00
2017-05-22T18:50:18.190Z,22.90
2017-05-22T18:52:46.553Z,22.70
2017-05-22T18:55:18.572Z,22.60
2017-05-22T18:57:46.938Z,22.40
2017-05-22T19:00:17.121Z,22.30
2017-05-22T19:02:45.447Z,22.20
2017-05-22T19:05:13.779Z,22.00
2017-05-22T19:07:46.481Z,21.90
2017-05-22T19:10:14.843Z,21.80
2017-05-22T19:12:43.168Z,21.60
2017-05-22T19:15:11.966Z,21.50
2017-05-22T19:17:40.291Z,21.40
2017-05-22T19:20:08.648Z,21.30
2017-05-22T19:22:37.205Z,21.10
2017-05-22T19:25:05.619Z,21.00
2017-05-22T19:27:33.989Z,20.80
2017-05-22T19:30:02.379Z,20.70
2017-05-22T19:32:30.701Z,20.60
2017-05-22T19:34:59.074Z,20.50
2017-05-22T19:37:32.758Z,20.40
2017-05-22T19:40:01.757Z,20.30
2017-05-22T19:42:30.162Z,20.20
2017-05-22T19:44:58.530Z,20.10
2017-05-22T19:47:26.892Z,20.10
2017-05-22T19:49:55.621Z,20.00
2017-05-22T19:52:23.941Z,19.90
2017-05-22T19:54:52.254Z,19.80
2017-05-22T19:57:20.145Z,19.80
2017-05-22T19:59:48.510Z,19.60
2017-05-22T20:02:16.882Z,19.50
2017-05-22T20:04:45.242Z,19.50
2017-05-22T20:07:13.607Z,19.40
2017-05-22T20:09:41.488Z,19.40
2017-05-22T20:12:09.798Z,19.20
2017-05-22T20:14:38.361Z,19.10
2017-05-22T20:17:06.735Z,19.10
2017-05-22T20:19:35.062Z,19.00
2017-05-22T20:22:03.465Z,18.90
2017-05-22T20:24:31.842Z,18.80
2017-05-22T20:27:00.418Z,18.70
2017-05-22T20:29:28.786Z,18.60
2017-05-22T20:31:57.731Z,18.60
2017-05-22T20:34:26.088Z,18.50
2017-05-22T20:36:54.459Z,18.50
2017-05-22T20:39:23.269Z,18.40
2017-05-22T20:41:56.839Z,18.30
2017-05-22T20:44:25.194Z,18.30
2017-05-22T20:46:54.189Z,18.20
2017-05-22T20:49:22.509Z,18.20
2017-05-22T20:51:50.879Z,18.10
2017-05-22T20:54:19.325Z,18.10
2017-05-22T20:56:47.695Z,18.00
2017-05-22T20:59:16.019Z,18.00
2017-05-22T21:01:44.473Z,18.00
2017-05-22T21:04:12.782Z,17.90
2017-05-22T21:06:41.589Z,17.90
2017-05-22T21:09:09.906Z,17.80
2017-05-22T21:11:38.213Z,17.80
2017-05-22T21:14:07.849Z,17.70
2017-05-22T21:16:36.171Z,17.70
2017-05-22T21:19:04.529Z,17.60
2017-05-22T21:21:32.898Z,17.60
2017-05-22T21:24:01.477Z,17.60
2017-05-22T21:26:29.797Z,17.50
2017-05-22T21:28:58.117Z,17.40
2017-05-22T21:31:26.970Z,17.40
2017-05-22T21:33:55.609Z,17.40
2017-05-22T21:36:23.973Z,17.30
2017-05-22T21:38:52.605Z,17.30
2017-05-22T21:41:20.963Z,17.30
2017-05-22T21:43:49.276Z,17.20
2017-05-22T21:46:18.020Z,17.20
2017-05-22T21:48:46.382Z,17.10
2017-05-22T21:51:14.710Z,17.10
2017-05-22T21:53:43.303Z,17.00
2017-05-22T21:56:11.623Z,17.00
2017-05-22T21:58:40.138Z,16.90
2017-05-22T22:01:08.521Z,16.90
2017-05-22T22:03:36.889Z,16.80
2017-05-22T22:06:05.296Z,16.80
2017-05-22T22:08:33.669Z,16.80
2017-05-22T22:11:06.150Z,16.70
2017-05-22T22:13:34.514Z,16.70
2017-05-22T22:16:02.890Z,16.70
2017-05-22T22:18:32.521Z,16.70
2017-05-22T22:21:00.878Z,16.70
2017-05-22T22:23:29.249Z,16.60
2017-05-22T22:25:57.657Z,16.60
2017-05-22T22:28:27.777Z,16.60
2017-05-22T22:30:56.156Z,16.50
2017-05-22T22:33:24.570Z,16.50
2017-05-22T22:35:53.052Z,16.50
2017-05-22T22:38:21.909Z,16.40
2017-05-22T22:40:50.242Z,16.40
2017-05-22T22:43:18.561Z,16.40
2017-05-22T22:45:46.995Z,16.40
2017-05-22T22:48:15.322Z,16.40
2017-05-22T22:50:43.681Z,16.30
2017-05-22T22:53:12.045Z,16.30
2017-05-22T22:55:40.405Z,16.30
2017-05-22T22:58:09.123Z,16.20
2017-05-22T23:00:37.509Z,16.20
2017-05-22T23:03:05.877Z,16.20
2017-05-22T23:05:34.340Z,16.10
2017-05-22T23:08:02.710Z,16.10
2017-05-22T23:10:30.641Z,16.10
2017-05-22T23:12:59.004Z,16.00
2017-05-22T23:15:27.331Z,15.90
2017-05-22T23:17:55.702Z,15.90
2017-05-22T23:20:24.021Z,15.80
2017-05-22T23:22:53.153Z,15.80
2017-05-22T23:25:21.520Z,15.80
2017-05-22T23:27:49.852Z,15.70
2017-05-22T23:30:18.210Z,15.80
2017-05-22T23:32:46.578Z,15.80
2017-05-22T23:35:15.100Z,15.70
2017-05-22T23:37:43.430Z,15.70
2017-05-22T23:40:11.799Z,15.70
2017-05-22T23:42:40.596Z,15.70
2017-05-22T23:45:08.960Z,15.70
2017-05-22T23:47:37.865Z,15.60
2017-05-22T23:50:06.241Z,15.60
2017-05-22T23:52:34.565Z,15.60
2017-05-22T23:55:02.970Z,15.60
2017-05-22T23:57:31.339Z,15.50
